Time;durP1;ratioP1;P1;durP2;ratioP2;P2;SDS_P1;SDS_P2;PMS_P1;PMS_P2;Temp;Humidity;BMP_temperature;BMP_pressure;BME280_temperature;BME280_humidity;BME280_pressure;Samples;Min_cycle;Max_cycle;Signal;HPM_P1;HPM_P2
2021/11/03 00:00:19;;;;;;;26.00;16.70;;;;;;;;;;4968758;28;20174;-89
2021/11/03 00:03:18;;;;;;;;;;;;;;;;;;;;;
2021/11/03 00:05:47;;;;;;;31.77;18.17;;;6.00;99.90;;;;;;4986564;28;20233;-88
2021/11/03 00:08:19;;;;;;;27.38;17.45;;;6.00;99.90;;;;;;4968983;28;20174;-89
2021/11/03 00:10:50;;;;;;;29.92;16.83;;;6.10;99.90;;;;;;4984793;28;20545;-88
2021/11/03 00:13:22;;;;;;;32.72;17.92;;;5.90;99.90;;;;;;4984598;28;20177;-87
2021/11/03 00:16:16;;;;;;;32.72;17.95;;;5.90;99.90;;;;;;4968395;28;20225;-89
2021/11/03 00:19:35;;;;;;;;;;;;;;;;;;;;;
2021/11/03 00:22:15;;;;;;;28.60;17.35;;;5.80;99.90;;;;;;4985116;28;20778;-89
2021/11/03 00:24:47;;;;;;;26.83;16.40;;;5.90;99.90;;;;;;4969908;28;20191;-89
2021/11/03 00:27:16;;;;;;;23.60;15.85;;;;;;;;;;4967866;28;20178;-89
2021/11/03 00:29:55;;;;;;;;;;;;;;;;;;;;;
2021/11/03 00:32:29;;;;;;;24.50;14.68;;;5.90;99.90;;;;;;4985030;28;20509;-87
2021/11/03 00:35:09;;;;;;;26.98;16.83;;;5.90;99.90;;;;;;4994815;28;20200;-88
2021/11/03 00:37:37;;;;;;;26.27;16.15;;;;;;;;;;5005625;28;20226;-88
2021/11/03 00:40:21;;;;;;;28.17;16.42;;;5.70;99.90;;;;;;5024191;28;20710;-87
2021/11/03 00:42:47;;;;;;;26.58;14.95;;;;;;;;;;5006260;28;20177;-88
2021/11/03 00:45:34;;;;;;;26.13;16.40;;;5.60;99.90;;;;;;5006237;28;20169;-88
2021/11/03 00:48:09;;;;;;;35.00;17.70;;;5.60;99.90;;;;;;5023025;28;20204;-87
2021/11/03 00:50:43;;;;;;;27.80;17.08;;;5.60;99.90;;;;;;5025448;28;20168;-88
2021/11/03 00:53:17;;;;;;;35.65;18.73;;;;;;;;;;5011647;28;20172;-88
2021/11/03 00:55:43;;;;;;;41.15;18.27;;;;;;;;;;5008655;28;20275;-88
2021/11/03 00:58:09;;;;;;;37.40;16.50;;;;;;;;;;5009884;28;20207;-90
2021/11/03 01:00:36;;;;;;;34.58;18.10;;;;;;;;;;4994582;28;20181;-88
2021/11/03 01:03:02;;;;;;;31.48;16.63;;;;;;;;;;4991448;28;20224;-87
2021/11/03 01:05:28;;;;;;;65.00;17.98;;;;;;;;;;5013807;28;20173;-87
2021/11/03 01:08:10;;;;;;;34.35;18.33;;;5.60;99.90;;;;;;5012153;28;20177;-87
2021/11/03 01:10:45;;;;;;;53.97;19.50;;;5.60;99.90;;;;;;5010198;28;20169;-87
2021/11/03 01:13:14;;;;;;;43.22;15.40;;;;;;;;;;5012140;28;20244;-88
2021/11/03 01:15:41;;;;;;;49.55;16.13;;;;;;;;;;5010853;28;20280;-88
2021/11/03 01:18:10;;;;;;;61.55;17.02;;;5.60;99.90;;;;;;5010391;28;20192;-88
2021/11/03 01:20:39;;;;;;;24.35;15.48;;;;;;;;;;5010448;28;20219;-87
2021/11/03 01:23:07;;;;;;;32.40;16.77;;;5.50;99.90;;;;;;5010740;28;20177;-88
2021/11/03 01:25:38;;;;;;;26.33;16.17;;;5.40;99.90;;;;;;5009559;28;20188;-87
2021/11/03 01:28:09;;;;;;;31.33;16.58;;;5.40;99.90;;;;;;5008728;28;20180;-87
2021/11/03 01:30:52;;;;;;;;;;;;;;;;;;;;;
2021/11/03 01:33:24;;;;;;;35.80;16.83;;;5.30;99.90;;;;;;5026016;28;20263;-88
2021/11/03 01:35:50;;;;;;;26.98;15.23;;;;;;;;;;5008855;28;20283;-88
2021/11/03 01:38:19;;;;;;;40.63;18.67;;;;;;;;;;5009545;28;20189;-88
2021/11/03 01:40:49;;;;;;;36.83;20.38;;;5.50;99.90;;;;;;5012009;28;20376;-88
2021/11/03 01:43:40;;;;;;;130.07;21.35;;;5.50;99.90;;;;;;5013984;28;20179;-88
2021/11/03 01:46:34;;;;;;;46.33;15.50;;;5.60;99.90;;;;;;5014283;28;20177;-88
2021/11/03 01:49:11;;;;;;;75.15;16.50;;;5.60;99.90;;;;;;5013531;28;20175;-89
2021/11/03 01:51:43;;;;;;;45.75;16.15;;;5.60;99.90;;;;;;5030057;28;20227;-88
2021/11/03 01:54:14;;;;;;;59.72;16.30;;;5.60;99.90;;;;;;5012976;28;20254;-89
2021/11/03 01:56:44;;;;;;;36.50;14.20;;;;;;;;;;5013528;28;20180;-88
2021/11/03 01:59:30;;;;;;;40.10;15.45;;;5.50;99.90;;;;;;5012162;28;20173;-88
2021/11/03 02:02:02;;;;;;;24.20;14.27;;;;;;;;;;5012653;28;20176;-88
2021/11/03 02:04:35;;;;;;;27.63;12.30;;;5.50;99.90;;;;;;5013368;28;20552;-88
2021/11/03 02:07:10;;;;;;;30.60;14.82;;;5.60;99.90;;;;;;4998683;28;20240;-88
2021/11/03 02:09:36;;;;;;;24.40;13.25;;;;;;;;;;5014385;28;20173;-87
2021/11/03 02:12:05;;;;;;;25.33;14.52;;;;;;;;;;5012855;28;20230;-88
2021/11/03 02:14:34;;;;;;;28.08;13.40;;;;;;;;;;5012385;28;20231;-88
2021/11/03 02:17:09;;;;;;;24.10;13.40;;;5.60;99.90;;;;;;5013155;28;20176;-88
2021/11/03 02:19:35;;;;;;;20.08;13.35;;;;;;;;;;5013507;28;20172;-88
2021/11/03 02:22:11;;;;;;;29.38;13.13;;;5.50;99.90;;;;;;5012125;28;20184;-88
2021/11/03 02:24:50;;;;;;;45.78;14.32;;;5.40;99.90;;;;;;5015431;28;20176;-89
2021/11/03 02:27:17;;;;;;;64.38;14.35;;;;;;;;;;4999456;28;20248;-88
2021/11/03 02:29:51;;;;;;;34.65;12.98;;;5.30;99.90;;;;;;5012592;28;20224;-87
2021/11/03 02:32:23;;;;;;;31.83;12.50;;;5.30;99.90;;;;;;5010379;28;20538;-88
2021/11/03 02:34:49;;;;;;;34.20;12.50;;;;;;;;;;5011448;28;20223;-88
2021/11/03 02:37:28;;;;;;;39.00;12.68;;;5.30;99.90;;;;;;5014953;28;20594;-89
2021/11/03 02:40:23;;;;;;;22.13;12.80;;;5.20;99.90;;;;;;5012284;28;20187;-87
2021/11/03 02:42:58;;;;;;;36.45;11.60;;;5.20;99.90;;;;;;4997731;28;20199;-88
2021/11/03 02:45:40;;;;;;;20.30;13.05;;;5.20;99.90;;;;;;5030949;28;20165;-88
2021/11/03 02:48:10;;;;;;;33.92;12.30;;;;;;;;;;5032422;28;20227;-88
2021/11/03 02:50:37;;;;;;;20.30;12.48;;;;;;;;;;5012726;28;20176;-88
2021/11/03 02:53:03;;;;;;;33.75;14.73;;;;;;;;;;5012566;28;20179;-89
2021/11/03 02:55:29;;;;;;;22.88;14.10;;;;;;;;;;5011017;28;20216;-89
2021/11/03 02:58:04;;;;;;;31.90;13.63;;;;;;;;;;5032848;28;20188;-89
2021/11/03 03:00:36;;;;;;;28.90;11.68;;;;;;;;;;5016725;28;20179;-89
2021/11/03 03:03:03;;;;;;;17.20;12.43;;;;;;;;;;5014882;28;20184;-89
2021/11/03 03:05:43;;;;;;;21.80;12.77;;;5.30;99.90;;;;;;5013358;28;20177;-88
2021/11/03 03:08:13;;;;;;;24.27;14.85;;;5.30;99.90;;;;;;5015205;28;20164;-88
2021/11/03 03:10:39;;;;;;;16.05;12.02;;;;;;;;;;5014050;28;20261;-88
2021/11/03 03:13:11;;;;;;;19.15;12.52;;;;;;;;;;4995779;28;20177;-88
2021/11/03 03:15:39;;;;;;;18.58;12.07;;;;;;;;;;5011833;28;20240;-87
2021/11/03 03:18:06;;;;;;;19.35;13.27;;;;;;;;;;5028734;28;20255;-87
2021/11/03 03:20:34;;;;;;;23.08;12.90;;;5.20;99.90;;;;;;5012109;28;20184;-88
2021/11/03 03:23:03;;;;;;;19.05;13.13;;;5.10;99.90;;;;;;5011386;28;20169;-88
2021/11/03 03:25:30;;;;;;;22.98;12.75;;;;;;;;;;5011147;28;20180;-88
2021/11/03 03:27:57;;;;;;;18.10;12.82;;;;;;;;;;5011876;28;20170;-87
2021/11/03 03:30:25;;;;;;;27.20;13.93;;;;;;;;;;5012671;28;20260;-86
2021/11/03 03:32:51;;;;;;;23.52;14.40;;;;;;;;;;5012677;28;20190;-89
2021/11/03 03:35:22;;;;;;;21.90;14.35;;;5.00;99.90;;;;;;5014266;28;20633;-87
2021/11/03 03:37:50;;;;;;;19.17;12.55;;;;;;;;;;5013157;28;20224;-88
2021/11/03 03:40:17;;;;;;;19.88;14.20;;;5.10;99.90;;;;;;5013192;28;20180;-88
2021/11/03 03:42:52;;;;;;;21.20;13.07;;;;;;;;;;5030042;28;20176;-88
2021/11/03 03:45:20;;;;;;;22.15;13.98;;;;;;;;;;5011553;28;20203;-85
2021/11/03 03:47:46;;;;;;;20.15;14.32;;;;;;;;;;5009541;28;20176;-88
2021/11/03 03:50:13;;;;;;;23.67;12.98;;;;;;;;;;5011854;28;20546;-87
2021/11/03 03:52:44;;;;;;;25.73;17.02;;;5.00;99.90;;;;;;5012289;28;20173;-88
2021/11/03 03:55:11;;;;;;;20.77;14.07;;;;;;;;;;5010639;28;20240;-89
2021/11/03 03:57:44;;;;;;;20.23;12.65;;;;;;;;;;5010935;28;20534;-87
2021/11/03 04:00:19;;;;;;;17.75;13.27;;;5.00;99.90;;;;;;5028100;28;20169;-87
2021/11/03 04:02:46;;;;;;;14.40;11.98;;;;;;;;;;5011139;28;20176;-87
2021/11/03 04:05:20;;;;;;;19.77;13.88;;;;;;;;;;5009527;28;20191;-89
2021/11/03 04:07:46;;;;;;;18.65;12.35;;;;;;;;;;4994591;28;20180;-87
2021/11/03 04:10:15;;;;;;;17.58;13.27;;;5.00;99.90;;;;;;5009715;28;20184;-87
2021/11/03 04:12:41;;;;;;;20.10;12.85;;;;;;;;;;5008336;28;20236;-87
2021/11/03 04:15:13;;;;;;;18.92;13.43;;;5.10;99.90;;;;;;5025851;28;20205;-87
2021/11/03 04:17:39;;;;;;;22.65;13.82;;;;;;;;;;5011318;28;20168;-87
2021/11/03 04:20:10;;;;;;;18.25;13.18;;;5.20;99.90;;;;;;5024954;28;20180;-88
2021/11/03 04:22:36;;;;;;;22.55;13.02;;;;;;;;;;5047136;28;20172;-88
2021/11/03 04:25:11;;;;;;;23.73;14.63;;;5.30;99.90;;;;;;5046335;28;20258;-87
2021/11/03 04:27:41;;;;;;;17.05;12.95;;;5.40;99.90;;;;;;5026687;28;20175;-87
2021/11/03 04:30:15;;;;;;;15.18;13.07;;;5.40;99.90;;;;;;5025599;28;20192;-88
2021/11/03 04:32:44;;;;;;;13.07;10.82;;;;;;;;;;5024832;28;20180;-87
2021/11/03 04:35:16;;;;;;;15.07;10.73;;;;;;;;;;5025255;28;20200;-87
2021/11/03 04:37:44;;;;;;;11.20;9.75;;;5.50;99.90;;;;;;5026562;28;20714;-87
2021/11/03 04:40:32;;;;;;;15.57;11.70;;;5.60;99.90;;;;;;5030050;28;20589;-87
2021/11/03 04:43:03;;;;;;;15.88;12.23;;;5.40;99.90;;;;;;5029425;28;20191;-87
2021/11/03 04:45:32;;;;;;;21.73;14.88;;;5.60;99.90;;;;;;5029750;28;20172;-87
2021/11/03 04:47:58;;;;;;;13.70;10.90;;;4.50;99.90;;;;;;5028420;28;20188;-88
2021/11/03 04:50:45;;;;;;;15.85;12.02;;;5.50;99.90;;;;;;5027447;28;20187;-87
2021/11/03 04:53:11;;;;;;;19.42;11.88;;;5.50;99.90;;;;;;5027953;28;20176;-87
2021/11/03 04:55:37;;;;;;;20.23;14.17;;;6.50;99.90;;;;;;5027424;28;20214;-88
2021/11/03 04:58:08;;;;;;;23.25;13.18;;;4.70;99.90;;;;;;5028635;28;20415;-88
2021/11/03 05:00:36;;;;;;;21.10;14.15;;;6.00;99.90;;;;;;5029631;28;20206;-87
2021/11/03 05:03:20;;;;;;;;;;;;;;;;;;;;;
2021/11/03 05:06:21;;;;;;;22.17;15.18;;;4.00;99.90;;;;;;5045931;28;20235;-87
2021/11/03 05:08:51;;;;;;;26.25;15.32;;;5.20;99.90;;;;;;5042688;28;20641;-88
2021/11/03 05:11:23;;;;;;;20.85;14.60;;;7.60;99.90;;;;;;5027676;28;20182;-88
2021/11/03 05:13:52;;;;;;;24.13;16.38;;;5.50;99.90;;;;;;5030452;28;20172;-87
2021/11/03 05:16:21;;;;;;;24.77;15.57;;;6.10;99.90;;;;;;5051149;28;20168;-88
2021/11/03 05:18:47;;;;;;;25.75;16.27;;;4.30;99.90;;;;;;5033444;28;20176;-85
2021/11/03 05:21:23;;;;;;;24.13;16.50;;;6.60;99.90;;;;;;5033389;28;20187;-89
2021/11/03 05:23:59;;;;;;;21.55;14.68;;;6.70;99.90;;;;;;5033548;28;20418;-87
2021/11/03 05:26:37;;;;;;;23.85;15.63;;;6.50;99.90;;;;;;5018474;28;20176;-84
2021/11/03 05:29:10;;;;;;;24.08;16.98;;;5.50;99.90;;;;;;5058613;28;20168;-87
2021/11/03 05:31:41;;;;;;;27.60;17.67;;;5.50;99.90;;;;;;5041222;28;20183;-89
2021/11/03 05:34:10;;;;;;;28.92;16.40;;;3.90;99.90;;;;;;5028551;28;20234;-87
2021/11/03 05:36:39;;;;;;;27.52;15.52;;;7.40;99.90;;;;;;5036172;28;20320;-87
2021/11/03 05:39:13;;;;;;;25.33;15.38;;;5.50;99.90;;;;;;5030583;28;20173;-88
2021/11/03 05:41:51;;;;;;;23.38;14.95;;;5.40;99.90;;;;;;5030389;28;20176;-89
2021/11/03 05:47:49;;;;;;;20.33;15.00;;;7.30;99.90;;;;;;4952727;29;20171;-86
2021/11/03 05:50:22;;;;;;;23.20;15.63;;;7.50;99.90;;;;;;4958601;29;20245;-86
2021/11/03 05:52:49;;;;;;;22.05;15.30;;;4.80;99.90;;;;;;5005215;28;20185;-87
2021/11/03 05:55:15;;;;;;;18.05;13.52;;;7.10;99.90;;;;;;5028672;28;20208;-87
2021/11/03 05:57:43;;;;;;;19.60;14.20;;;5.60;99.90;;;;;;5028679;28;20223;-86
2021/11/03 06:00:29;;;;;;;18.83;11.05;;;6.70;99.90;;;;;;5026851;28;20430;-88
2021/11/03 06:02:55;;;;;;;14.50;10.70;;;7.40;99.90;;;;;;5028011;28;20267;-88
2021/11/03 06:05:21;;;;;;;18.42;12.88;;;5.70;99.90;;;;;;5030523;28;20203;-88
2021/11/03 06:07:58;;;;;;;15.93;12.70;;;5.60;99.90;;;;;;5028614;28;20180;-89
2021/11/03 06:10:32;;;;;;;15.77;12.35;;;5.80;99.90;;;;;;5027855;28;20247;-89
2021/11/03 06:13:01;;;;;;;18.48;13.02;;;5.60;99.90;;;;;;5029366;28;20227;-88
2021/11/03 06:15:30;;;;;;;19.50;14.40;;;5.80;99.90;;;;;;5027307;28;20213;-89
2021/11/03 06:18:06;;;;;;;17.52;13.55;;;6.60;99.90;;;;;;5025382;28;20181;-88
2021/11/03 06:20:35;;;;;;;19.35;14.50;;;5.40;99.90;;;;;;5026566;28;20191;-88
2021/11/03 06:23:03;;;;;;;23.20;14.88;;;6.80;99.90;;;;;;5028201;28;20192;-88
2021/11/03 06:25:31;;;;;;;26.77;17.17;;;5.40;99.90;;;;;;5027896;28;20231;-88
2021/11/03 06:27:58;;;;;;;21.60;15.73;;;5.00;99.90;;;;;;5030685;28;20251;-86
2021/11/03 06:30:37;;;;;;;25.48;16.00;;;5.80;99.90;;;;;;5031514;28;20176;-89
2021/11/03 06:33:28;;;;;;;21.73;16.35;;;7.80;99.90;;;;;;5032925;28;20176;-89
2021/11/03 06:36:02;;;;;;;27.60;18.67;;;5.40;99.90;;;;;;5035826;28;20235;-90
2021/11/03 06:38:28;;;;;;;25.15;15.68;;;6.00;99.90;;;;;;5033797;28;20269;-87
2021/11/03 06:40:58;;;;;;;17.67;13.90;;;6.40;99.90;;;;;;5029658;28;20168;-90
2021/11/03 06:43:52;;;;;;;20.38;14.43;;;6.10;99.90;;;;;;5029419;28;20183;-87
2021/11/03 06:46:23;;;;;;;17.15;13.82;;;6.00;99.90;;;;;;5045967;28;20207;-90
2021/11/03 06:49:28;;;;;;;;;;;;;;;;;;;;;
2021/11/03 06:52:10;;;;;;;20.38;13.30;;;6.20;99.90;;;;;;5021586;28;20263;-89
2021/11/03 06:54:44;;;;;;;19.33;14.60;;;6.20;99.90;;;;;;5032242;28;20238;-89
2021/11/03 07:00:03;;;;;;;18.42;14.02;;;6.10;99.90;;;;;;5268305;23;20221;-89
2021/11/03 07:05:46;;;;;;;;;;;;;;;;;;;;;
2021/11/03 07:08:14;;;;;;;19.52;14.18;;;6.20;99.90;;;;;;5630190;23;20322;-91
2021/11/03 07:28:58;;;;;;;18.80;13.40;;;8.00;99.90;;;;;;5310838;23;20255;-89
2021/11/03 07:31:27;;;;;;;25.73;17.80;;;8.50;99.90;;;;;;5030956;28;20435;-91
2021/11/03 07:34:30;;;;;;;22.52;16.40;;;7.10;99.90;;;;;;5030070;28;20191;-89
2021/11/03 07:36:56;;;;;;;31.40;18.20;;;7.10;99.90;;;;;;4976858;28;20196;-88
2021/11/03 07:39:43;;;;;;;25.57;16.67;;;6.40;99.90;;;;;;5012331;28;20173;-92
2021/11/03 07:56:50;;;;;;;24.00;14.00;;;5.60;99.90;;;;;;4995397;28;20220;-86
2021/11/03 08:13:42;;;;;;;14.82;12.70;;;7.50;99.90;;;;;;5152891;23;20483;-88
2021/11/03 08:16:08;;;;;;;16.45;13.45;;;8.60;99.90;;;;;;5017144;28;20205;-87
2021/11/03 08:18:55;;;;;;;19.07;12.80;;;8.80;99.90;;;;;;5019016;28;20182;-90
2021/11/03 08:21:27;;;;;;;16.15;13.80;;;7.00;99.90;;;;;;5028706;28;20409;-89
2021/11/03 08:24:11;;;;;;;24.75;13.50;;;7.80;99.90;;;;;;5031198;28;20199;-90
2021/11/03 08:29:12;;;;;;;12.47;11.17;;;7.20;99.90;;;;;;4953805;26;20213;-89
2021/11/03 08:31:42;;;;;;;13.40;11.98;;;9.20;99.90;;;;;;5315947;23;20444;-89
2021/11/03 08:34:28;;;;;;;;;;;;;;;;;;;;;
2021/11/03 08:42:43;;;;;;;13.95;11.35;;;7.30;99.90;;;;;;5442642;23;20224;31
2021/11/03 08:56:13;;;;;;;16.95;11.75;;;7.50;99.90;;;;;;4981379;28;20291;-88
2021/11/03 08:58:38;;;;;;;10.63;9.65;;;9.00;99.90;;;;;;4976034;28;20261;-87
2021/11/03 09:01:27;;;;;;;16.13;10.70;;;9.30;99.90;;;;;;4976732;28;20178;-89
2021/11/03 09:04:03;;;;;;;;;;;;;;;;;;;;;
2021/11/03 09:06:39;;;;;;;;;;;;;;;;;;;;;
2021/11/03 09:09:08;;;;;;;11.60;10.50;;;9.30;99.90;;;;;;4976553;28;20598;-90
2021/11/03 09:11:36;;;;;;;13.27;11.23;;;8.90;99.90;;;;;;4959120;28;20444;-88
2021/11/03 09:14:04;;;;;;;13.20;11.70;;;8.70;99.90;;;;;;4975659;28;20173;-90
2021/11/03 09:16:31;;;;;;;12.50;11.30;;;8.20;99.90;;;;;;4977929;28;20412;-90
2021/11/03 09:18:56;;;;;;;13.68;10.45;;;8.70;99.90;;;;;;4961650;28;20457;-89
2021/11/03 09:21:32;;;;;;;;;;;;;;;;;;;;;
2021/11/03 09:24:03;;;;;;;13.03;11.70;;;9.80;99.90;;;;;;4979181;28;20612;-87
2021/11/03 09:26:29;;;;;;;14.55;11.10;;;8.20;99.90;;;;;;4951136;29;20426;-91
2021/11/03 09:28:58;;;;;;;11.67;10.27;;;9.30;99.90;;;;;;4959462;29;20678;-89
2021/11/03 09:31:25;;;;;;;12.23;10.90;;;9.30;99.90;;;;;;4976822;28;20491;-91
2021/11/03 09:33:50;;;;;;;11.60;10.50;;;8.60;99.90;;;;;;4977689;28;20909;-89
2021/11/03 09:36:20;;;;;;;11.87;10.17;;;9.10;99.90;;;;;;4978296;28;20468;-90
2021/11/03 09:38:50;;;;;;;11.93;10.40;;;7.60;99.90;;;;;;4634046;28;9999666;-91
2021/11/03 09:41:25;;;;;;;12.73;11.10;;;8.10;99.90;;;;;;4959231;28;20555;-91
2021/11/03 09:44:15;;;;;;;10.47;9.50;;;7.70;99.90;;;;;;4961102;28;20569;-89
2021/11/03 09:47:12;;;;;;;10.43;9.43;;;8.60;99.90;;;;;;4975226;28;20421;-87
2021/11/03 09:49:44;;;;;;;10.27;9.38;;;8.70;99.90;;;;;;4939527;28;20175;-88
2021/11/03 09:52:33;;;;;;;10.70;9.60;;;8.30;99.90;;;;;;4975023;28;20233;-88
2021/11/03 09:55:13;;;;;;;14.33;10.73;;;9.30;99.90;;;;;;4966450;28;20229;-90
2021/11/03 09:57:43;;;;;;;11.55;10.35;;;8.40;99.90;;;;;;4994563;28;20420;-88
2021/11/03 10:00:12;;;;;;;14.10;10.00;;;8.40;99.90;;;;;;4995437;28;20165;-87
2021/11/03 10:03:09;;;;;;;11.37;9.50;;;9.90;99.90;;;;;;4980238;28;20468;-89
2021/11/03 10:05:56;;;;;;;12.30;11.10;;;8.30;99.90;;;;;;4982802;28;20429;-87
2021/11/03 10:08:33;;;;;;;11.27;9.60;;;8.30;99.90;;;;;;4998120;28;20941;-87
2021/11/03 10:11:05;;;;;;;11.23;10.13;;;9.60;99.90;;;;;;4978610;28;20508;-88
2021/11/03 10:13:32;;;;;;;19.77;11.90;;;9.20;99.90;;;;;;4996011;28;20412;-84
2021/11/03 10:16:05;;;;;;;12.10;10.93;;;9.70;99.90;;;;;;4998068;28;20208;-85
2021/11/03 10:18:35;;;;;;;15.38;12.32;;;8.80;99.90;;;;;;4976789;28;20883;-87
2021/11/03 10:21:14;;;;;;;13.20;11.90;;;8.60;99.90;;;;;;4977566;28;20874;-87
2021/11/03 10:23:48;;;;;;;14.80;12.60;;;8.80;99.90;;;;;;4976787;28;20798;-84
2021/11/03 10:26:14;;;;;;;13.85;12.45;;;8.80;99.90;;;;;;4990146;28;20431;-84
2021/11/03 10:28:47;;;;;;;13.87;12.37;;;8.60;99.90;;;;;;4971826;28;20185;-87
2021/11/03 10:31:26;;;;;;;11.93;10.43;;;9.20;99.90;;;;;;4993715;28;20513;-86
2021/11/03 10:34:05;;;;;;;15.13;13.30;;;8.50;99.90;;;;;;4993091;28;21087;-85
2021/11/03 10:36:41;;;;;;;18.88;14.00;;;8.50;99.90;;;;;;4994622;28;20838;-86
2021/11/03 10:39:20;;;;;;;17.33;13.38;;;8.60;99.90;;;;;;4993680;28;20244;-86
2021/11/03 10:42:01;;;;;;;16.17;12.83;;;8.60;99.90;;;;;;4993545;28;20224;-85
2021/11/03 10:44:29;;;;;;;13.90;12.32;;;8.70;99.90;;;;;;4975712;28;20460;-86
2021/11/03 10:47:07;;;;;;;15.95;13.68;;;8.70;99.90;;;;;;4976479;28;20302;-86
2021/11/03 10:50:02;;;;;;;18.77;13.70;;;8.70;99.90;;;;;;4993634;28;20634;-87
2021/11/03 10:52:46;;;;;;;25.33;15.27;;;8.80;99.90;;;;;;4978403;28;20184;-85
2021/11/03 10:55:34;;;;;;;17.50;14.00;;;8.80;99.90;;;;;;4984323;28;20261;-84
2021/11/03 10:58:26;;;;;;;15.90;13.00;;;8.80;99.90;;;;;;5017810;23;20526;-89
2021/11/03 11:01:01;;;;;;;19.40;12.17;;;8.90;99.90;;;;;;4948419;29;20407;-89
2021/11/03 11:03:32;;;;;;;13.63;12.02;;;8.90;99.90;;;;;;4938441;29;20442;-89
2021/11/03 11:06:11;;;;;;;14.35;13.02;;;8.80;99.90;;;;;;4942609;29;20202;-87
2021/11/03 11:08:45;;;;;;;19.10;14.30;;;8.90;99.90;;;;;;4936471;29;20183;-85
2021/11/03 11:11:13;;;;;;;20.90;14.30;;;8.70;99.90;;;;;;4935133;29;20449;-85
2021/11/03 11:13:59;;;;;;;14.33;12.27;;;9.00;99.90;;;;;;4933295;29;20190;-86
2021/11/03 11:16:33;;;;;;;17.83;13.87;;;9.00;99.90;;;;;;4933909;29;20447;-86
2021/11/03 11:19:06;;;;;;;16.27;14.67;;;8.30;99.90;;;;;;4935787;29;20785;-87
2021/11/03 11:21:40;;;;;;;16.07;13.40;;;9.00;99.90;;;;;;4935520;29;20487;-87
2021/11/03 11:24:35;;;;;;;16.73;14.70;;;9.10;99.90;;;;;;4935249;29;20414;-86
2021/11/03 11:27:37;;;;;;;20.00;14.00;;;9.10;99.90;;;;;;4929611;29;20806;-86
2021/11/03 11:30:20;;;;;;;20.63;13.33;;;9.10;99.90;;;;;;4935322;29;20407;-86
2021/11/03 11:33:03;;;;;;;18.08;14.88;;;9.10;99.90;;;;;;4934743;29;20419;-87
2021/11/03 11:35:43;;;;;;;17.37;14.77;;;9.00;99.90;;;;;;4935312;29;20222;-86
2021/11/03 11:38:26;;;;;;;20.47;16.37;;;8.90;99.90;;;;;;4933579;29;20438;-86
2021/11/03 11:41:03;;;;;;;18.33;14.03;;;8.90;99.90;;;;;;4935476;29;20419;-86
2021/11/03 11:43:44;;;;;;;21.40;16.90;;;8.90;99.90;;;;;;4936160;29;20471;-86
2021/11/03 11:46:14;;;;;;;18.75;15.32;;;8.90;99.90;;;;;;4935474;29;20419;-85
2021/11/03 11:48:40;;;;;;;21.33;15.65;;;8.70;99.90;;;;;;4936560;29;20196;-85
2021/11/03 11:51:29;;;;;;;19.23;15.77;;;8.90;99.90;;;;;;4918036;29;20578;-87
2021/11/03 11:53:56;;;;;;;18.75;15.43;;;8.90;99.90;;;;;;4935367;29;20420;-88
2021/11/03 11:56:31;;;;;;;20.13;15.03;;;9.30;99.90;;;;;;4935113;28;20219;-87
2021/11/03 11:59:20;;;;;;;20.60;15.00;;;9.00;99.90;;;;;;4936523;29;20449;-87
2021/11/03 12:01:49;;;;;;;19.15;15.40;;;9.00;99.90;;;;;;4936457;29;20310;-83
2021/11/03 12:04:20;;;;;;;22.53;16.23;;;8.90;99.90;;;;;;4953466;29;20202;-89
2021/11/03 12:06:51;;;;;;;25.37;17.80;;;8.90;99.90;;;;;;4953353;29;20427;-87
2021/11/03 12:09:26;;;;;;;20.95;16.20;;;7.90;99.90;;;;;;4937111;29;20414;-87
2021/11/03 12:11:54;;;;;;;22.90;17.52;;;8.80;99.90;;;;;;4953832;29;20174;-89
2021/11/03 12:14:21;;;;;;;21.37;16.77;;;8.80;99.90;;;;;;4952141;28;20189;-86
2021/11/03 12:17:15;;;;;;;26.80;18.20;;;8.70;99.90;;;;;;4954526;29;20517;-85
2021/11/03 12:19:54;;;;;;;25.75;18.00;;;8.80;99.90;;;;;;4954741;29;20425;-88
2021/11/03 12:22:40;;;;;;;26.05;18.23;;;8.80;99.90;;;;;;4935908;29;20194;-86
2021/11/03 12:25:31;;;;;;;21.17;17.97;;;8.80;99.90;;;;;;4936699;29;20508;-87
2021/11/03 12:28:09;;;;;;;21.90;18.77;;;9.50;99.90;;;;;;4937540;29;20415;-86
2021/11/03 12:30:43;;;;;;;25.50;17.58;;;8.90;99.90;;;;;;4956033;29;20406;-89
2021/11/03 12:33:13;;;;;;;23.35;18.40;;;8.90;99.90;;;;;;4953914;29;20166;-87
2021/11/03 12:35:39;;;;;;;26.38;18.15;;;8.70;99.90;;;;;;4936862;29;20224;-86
2021/11/03 12:38:10;;;;;;;30.30;20.00;;;8.80;99.90;;;;;;4953829;28;20242;-88
2021/11/03 12:40:36;;;;;;;31.13;21.65;;;8.90;99.90;;;;;;4956775;28;20186;-88
2021/11/03 12:43:20;;;;;;;33.90;20.83;;;8.70;99.90;;;;;;4957174;29;20529;-90
2021/11/03 12:46:02;;;;;;;26.58;20.60;;;8.60;99.90;;;;;;4958089;29;20170;-87
2021/11/03 12:48:50;;;;;;;30.48;21.48;;;8.90;99.90;;;;;;4960299;29;20175;-87
2021/11/03 12:51:29;;;;;;;29.03;21.10;;;8.00;99.90;;;;;;4957328;29;20194;-90
2021/11/03 12:54:01;;;;;;;28.48;20.02;;;8.90;99.90;;;;;;4939027;29;20437;-89
2021/11/03 12:56:29;;;;;;;31.70;21.75;;;9.10;99.90;;;;;;4959027;28;20689;-88
2021/11/03 12:58:59;;;;;;;32.53;22.73;;;10.00;99.90;;;;;;4955118;29;20542;-88
2021/11/03 13:02:20;;;;;;;37.45;22.35;;;8.30;99.90;;;;;;4944604;29;20277;-91
2021/11/03 13:09:07;;;;;;;32.05;20.48;;;9.00;99.90;;;;;;4953383;29;20771;-89
2021/11/03 13:11:50;;;;;;;34.55;22.38;;;8.80;99.90;;;;;;4938795;29;20226;-90
2021/11/03 13:14:39;;;;;;;36.28;22.40;;;10.10;99.90;;;;;;4940188;29;20210;-88
2021/11/03 13:17:37;;;;;;;29.53;19.70;;;8.60;99.90;;;;;;4951307;29;20201;-91
2021/11/03 13:23:04;;;;;;;29.25;21.13;;;8.50;99.90;;;;;;5107808;23;20215;-92
2021/11/03 13:25:38;;;;;;;30.73;21.75;;;8.50;99.90;;;;;;4961413;28;20174;-88
2021/11/03 13:28:10;;;;;;;31.13;21.42;;;8.50;99.90;;;;;;4993890;28;20177;-87
2021/11/03 13:30:38;;;;;;;29.42;21.05;;;9.50;99.90;;;;;;4993565;28;20535;-88
2021/11/03 13:33:30;;;;;;;29.07;20.30;;;7.80;99.90;;;;;;4974799;28;20807;-87
2021/11/03 13:36:17;;;;;;;30.90;21.40;;;8.50;99.90;;;;;;4977313;28;20479;-88
2021/11/03 13:38:53;;;;;;;28.67;19.92;;;8.60;99.90;;;;;;4996958;28;20507;-87
2021/11/03 13:41:40;;;;;;;28.85;21.45;;;8.60;99.90;;;;;;4998808;28;20269;-89
2021/11/03 13:44:36;;;;;;;27.40;19.80;;;8.60;99.90;;;;;;4996320;28;20264;-88
2021/11/03 13:47:05;;;;;;;26.80;19.25;;;8.60;99.90;;;;;;4997390;28;20480;-85
2021/11/03 13:49:40;;;;;;;27.27;20.45;;;10.20;99.90;;;;;;4997990;28;20174;-87
2021/11/03 13:52:16;;;;;;;28.87;19.30;;;8.50;99.90;;;;;;4999450;28;20192;-87
2021/11/03 13:55:00;;;;;;;24.15;19.08;;;10.00;99.90;;;;;;4980749;28;20468;-87
2021/11/03 13:57:36;;;;;;;27.20;19.00;;;10.00;99.90;;;;;;4993140;28;20182;-84
2021/11/03 14:00:25;;;;;;;29.85;18.90;;;8.60;99.90;;;;;;4996592;28;20193;-88
2021/11/03 14:02:52;;;;;;;25.25;18.85;;;8.50;99.90;;;;;;4979457;28;20174;-85
2021/11/03 14:05:43;;;;;;;26.93;18.40;;;8.60;99.90;;;;;;4993479;28;20173;-87
2021/11/03 14:08:28;;;;;;;25.95;19.52;;;8.30;99.90;;;;;;4997938;28;20739;-87
2021/11/03 14:10:53;;;;;;;26.08;19.60;;;8.60;99.90;;;;;;4998010;28;20580;-86
2021/11/03 14:13:19;;;;;;;28.60;19.80;;;10.40;99.90;;;;;;4979882;28;20256;-84
2021/11/03 14:15:45;;;;;;;24.20;18.47;;;8.40;99.90;;;;;;4998290;28;20204;-85
2021/11/03 14:18:12;;;;;;;26.87;17.70;;;8.40;99.90;;;;;;4998408;28;20412;-87
2021/11/03 14:20:48;;;;;;;29.57;18.97;;;8.70;99.90;;;;;;4999252;28;20521;-86
2021/11/03 14:23:19;;;;;;;34.58;21.42;;;10.30;99.90;;;;;;4998373;28;20432;-86
2021/11/03 14:25:46;;;;;;;30.95;20.10;;;8.30;99.90;;;;;;4961533;28;20174;-87
2021/11/03 14:28:14;;;;;;;31.47;20.93;;;8.30;99.90;;;;;;4961601;28;20174;-87
2021/11/03 14:30:45;;;;;;;26.02;19.95;;;8.80;99.90;;;;;;4978893;28;20496;-85
2021/11/03 14:33:40;;;;;;;30.40;20.53;;;9.50;99.90;;;;;;4978402;28;20214;-86
2021/11/03 14:36:09;;;;;;;25.98;20.27;;;8.80;99.90;;;;;;4959357;28;20472;-87
2021/11/03 14:38:37;;;;;;;24.73;19.57;;;8.80;99.90;;;;;;4978531;28;20245;-85
2021/11/03 14:41:06;;;;;;;31.83;18.23;;;8.70;99.90;;;;;;4988947;28;20507;-86
2021/11/03 14:43:32;;;;;;;30.08;18.58;;;8.70;99.90;;;;;;5005401;28;20191;-87
2021/11/03 14:45:58;;;;;;;26.63;19.30;;;9.80;99.90;;;;;;5020953;28;20169;-85
2021/11/03 14:48:27;;;;;;;31.83;20.08;;;9.50;99.90;;;;;;5020524;28;20173;-85
2021/11/03 14:50:53;;;;;;;25.97;18.70;;;8.40;99.90;;;;;;5019245;28;20219;-87
2021/11/03 14:53:22;;;;;;;27.07;19.63;;;8.70;99.90;;;;;;5001379;28;21018;-85
2021/11/03 14:55:51;;;;;;;25.70;19.83;;;8.60;99.90;;;;;;5000192;28;20474;-85
2021/11/03 14:58:18;;;;;;;31.30;21.08;;;10.70;99.90;;;;;;5019816;28;20400;-86
2021/11/03 15:00:50;;;;;;;27.23;20.23;;;8.70;99.90;;;;;;4996367;28;20177;-86
2021/11/03 15:03:25;;;;;;;27.50;19.50;;;8.70;99.90;;;;;;4978512;28;20447;-87
2021/11/03 15:06:09;;;;;;;28.83;21.77;;;8.70;99.90;;;;;;5000324;28;20419;-86